sensor_id;sensor_type;location;lat;lon;timestamp;temperature;humidity
68867;SHT30;56451;44.804;20.476;2024-01-07T00:02:08;13.84;50.24
68867;SHT30;56451;44.804;20.476;2024-01-07T00:04:35;13.85;50.48
68867;SHT30;56451;44.804;20.476;2024-01-07T00:07:01;13.84;50.78
68867;SHT30;56451;44.804;20.476;2024-01-07T00:09:28;13.88;50.97
68867;SHT30;56451;44.804;20.476;2024-01-07T00:11:55;13.88;51.18
68867;SHT30;56451;44.804;20.476;2024-01-07T00:14:41;13.90;51.08
68867;SHT30;56451;44.804;20.476;2024-01-07T00:17:08;13.88;50.92
68867;SHT30;56451;44.804;20.476;2024-01-07T00:19:55;13.85;50.96
68867;SHT30;56451;44.804;20.476;2024-01-07T00:22:41;13.87;51.05
68867;SHT30;56451;44.804;20.476;2024-01-07T00:25:07;13.90;51.08
68867;SHT30;56451;44.804;20.476;2024-01-07T00:27:34;13.90;51.15
68867;SHT30;56451;44.804;20.476;2024-01-07T00:30:00;13.90;51.09
68867;SHT30;56451;44.804;20.476;2024-01-07T00:32:26;13.87;50.95
68867;SHT30;56451;44.804;20.476;2024-01-07T00:35:12;13.88;50.81
68867;SHT30;56451;44.804;20.476;2024-01-07T00:37:58;13.83;50.86
68867;SHT30;56451;44.804;20.476;2024-01-07T00:40:44;13.85;50.70
68867;SHT30;56451;44.804;20.476;2024-01-07T00:43:11;13.85;50.70
68867;SHT30;56451;44.804;20.476;2024-01-07T00:45:37;13.88;50.74
68867;SHT30;56451;44.804;20.476;2024-01-07T00:48:03;13.91;50.66
68867;SHT30;56451;44.804;20.476;2024-01-07T00:50:29;13.94;50.74
68867;SHT30;56451;44.804;20.476;2024-01-07T00:52:56;13.94;50.63
68867;SHT30;56451;44.804;20.476;2024-01-07T00:55:42;13.88;50.47
68867;SHT30;56451;44.804;20.476;2024-01-07T00:58:28;13.90;50.48
68867;SHT30;56451;44.804;20.476;2024-01-07T01:01:14;13.88;50.64
68867;SHT30;56451;44.804;20.476;2024-01-07T01:04:01;13.90;50.35
68867;SHT30;56451;44.804;20.476;2024-01-07T01:06:47;13.87;50.33
68867;SHT30;56451;44.804;20.476;2024-01-07T01:09:33;13.84;50.20
68867;SHT30;56451;44.804;20.476;2024-01-07T01:11:59;13.80;50.32
68867;SHT30;56451;44.804;20.476;2024-01-07T01:14:46;13.76;50.54
68867;SHT30;56451;44.804;20.476;2024-01-07T01:17:11;13.76;50.50
68867;SHT30;56451;44.804;20.476;2024-01-07T01:19:38;13.67;50.51
68867;SHT30;56451;44.804;20.476;2024-01-07T01:22:25;13.66;50.66
68867;SHT30;56451;44.804;20.476;2024-01-07T01:24:51;13.66;50.67
68867;SHT30;56451;44.804;20.476;2024-01-07T01:27:37;13.67;50.56
68867;SHT30;56451;44.804;20.476;2024-01-07T01:30:23;13.69;50.48
68867;SHT30;56451;44.804;20.476;2024-01-07T01:33:09;13.74;50.40
68867;SHT30;56451;44.804;20.476;2024-01-07T01:35:55;13.60;50.61
68867;SHT30;56451;44.804;20.476;2024-01-07T01:38:31;13.63;50.50
68867;SHT30;56451;44.804;20.476;2024-01-07T01:41:16;13.57;50.67
68867;SHT30;56451;44.804;20.476;2024-01-07T01:44:03;13.49;50.76
68867;SHT30;56451;44.804;20.476;2024-01-07T01:46:49;13.42;51.02
68867;SHT30;56451;44.804;20.476;2024-01-07T01:49:35;13.40;51.12
68867;SHT30;56451;44.804;20.476;2024-01-07T01:52:22;13.36;51.10
68867;SHT30;56451;44.804;20.476;2024-01-07T01:55:09;13.43;51.20
68867;SHT30;56451;44.804;20.476;2024-01-07T01:57:56;13.38;51.29
68867;SHT30;56451;44.804;20.476;2024-01-07T02:00:44;13.36;51.28
68867;SHT30;56451;44.804;20.476;2024-01-07T02:03:30;13.38;51.57
68867;SHT30;56451;44.804;20.476;2024-01-07T02:06:16;13.42;51.46
68867;SHT30;56451;44.804;20.476;2024-01-07T02:08:42;13.46;51.14
68867;SHT30;56451;44.804;20.476;2024-01-07T02:11:29;13.46;51.09
68867;SHT30;56451;44.804;20.476;2024-01-07T02:13:55;13.38;51.15
68867;SHT30;56451;44.804;20.476;2024-01-07T02:16:41;13.38;51.31
68867;SHT30;56451;44.804;20.476;2024-01-07T02:19:27;13.36;51.22
68867;SHT30;56451;44.804;20.476;2024-01-07T02:22:13;13.26;51.26
68867;SHT30;56451;44.804;20.476;2024-01-07T02:24:59;13.29;51.11
68867;SHT30;56451;44.804;20.476;2024-01-07T02:27:45;13.36;51.15
68867;SHT30;56451;44.804;20.476;2024-01-07T02:30:31;13.30;51.12
68867;SHT30;56451;44.804;20.476;2024-01-07T02:33:17;13.34;51.04
68867;SHT30;56451;44.804;20.476;2024-01-07T02:35:43;13.29;51.08
68867;SHT30;56451;44.804;20.476;2024-01-07T02:38:09;13.25;51.18
68867;SHT30;56451;44.804;20.476;2024-01-07T02:40:35;13.22;51.32
68867;SHT30;56451;44.804;20.476;2024-01-07T02:43:01;13.14;51.27
68867;SHT30;56451;44.804;20.476;2024-01-07T02:45:28;13.12;51.35
68867;SHT30;56451;44.804;20.476;2024-01-07T02:47:54;13.14;51.42
68867;SHT30;56451;44.804;20.476;2024-01-07T02:50:21;13.16;51.34
68867;SHT30;56451;44.804;20.476;2024-01-07T02:52:48;13.19;51.23
68867;SHT30;56451;44.804;20.476;2024-01-07T02:55:13;13.18;51.09
68867;SHT30;56451;44.804;20.476;2024-01-07T02:57:39;13.22;50.90
68867;SHT30;56451;44.804;20.476;2024-01-07T03:00:07;13.18;50.88
68867;SHT30;56451;44.804;20.476;2024-01-07T03:02:33;13.15;50.94
68867;SHT30;56451;44.804;20.476;2024-01-07T03:04:59;13.12;50.61
68867;SHT30;56451;44.804;20.476;2024-01-07T03:07:26;13.16;50.10
68867;SHT30;56451;44.804;20.476;2024-01-07T03:09:52;13.16;49.95
68867;SHT30;56451;44.804;20.476;2024-01-07T03:12:18;13.12;49.78
68867;SHT30;56451;44.804;20.476;2024-01-07T03:14:44;13.15;49.66
68867;SHT30;56451;44.804;20.476;2024-01-07T03:17:10;13.18;49.43
68867;SHT30;56451;44.804;20.476;2024-01-07T03:19:39;13.11;48.99
68867;SHT30;56451;44.804;20.476;2024-01-07T03:22:07;13.04;48.86
68867;SHT30;56451;44.804;20.476;2024-01-07T03:24:33;13.11;48.87
68867;SHT30;56451;44.804;20.476;2024-01-07T03:26:59;13.09;48.93
68867;SHT30;56451;44.804;20.476;2024-01-07T03:29:25;13.08;49.14
68867;SHT30;56451;44.804;20.476;2024-01-07T03:31:52;13.11;49.06
68867;SHT30;56451;44.804;20.476;2024-01-07T03:34:19;13.16;48.89
68867;SHT30;56451;44.804;20.476;2024-01-07T03:36:45;13.06;48.55
68867;SHT30;56451;44.804;20.476;2024-01-07T03:39:11;13.04;48.56
68867;SHT30;56451;44.804;20.476;2024-01-07T03:41:38;13.06;48.50
68867;SHT30;56451;44.804;20.476;2024-01-07T03:44:05;13.06;48.42
68867;SHT30;56451;44.804;20.476;2024-01-07T03:46:31;13.09;48.30
68867;SHT30;56451;44.804;20.476;2024-01-07T03:48:57;13.04;48.12
68867;SHT30;56451;44.804;20.476;2024-01-07T03:51:23;13.05;47.80
68867;SHT30;56451;44.804;20.476;2024-01-07T03:53:49;13.09;47.78
68867;SHT30;56451;44.804;20.476;2024-01-07T03:56:15;13.11;47.34
68867;SHT30;56451;44.804;20.476;2024-01-07T03:58:41;13.04;47.32
68867;SHT30;56451;44.804;20.476;2024-01-07T04:01:08;13.01;47.22
68867;SHT30;56451;44.804;20.476;2024-01-07T04:03:34;13.05;47.11
68867;SHT30;56451;44.804;20.476;2024-01-07T04:06:00;13.08;46.78
68867;SHT30;56451;44.804;20.476;2024-01-07T04:08:46;13.05;46.81
68867;SHT30;56451;44.804;20.476;2024-01-07T04:11:32;13.09;46.36
68867;SHT30;56451;44.804;20.476;2024-01-07T04:14:08;13.14;46.04
68867;SHT30;56451;44.804;20.476;2024-01-07T04:16:35;13.19;45.74
68867;SHT30;56451;44.804;20.476;2024-01-07T04:19:01;13.22;45.73
68867;SHT30;56451;44.804;20.476;2024-01-07T04:21:27;13.29;46.09
68867;SHT30;56451;44.804;20.476;2024-01-07T04:23:53;13.38;46.35
68867;SHT30;56451;44.804;20.476;2024-01-07T04:26:19;13.38;45.72
68867;SHT30;56451;44.804;20.476;2024-01-07T04:28:46;13.43;45.68
68867;SHT30;56451;44.804;20.476;2024-01-07T04:31:11;13.39;45.59
68867;SHT30;56451;44.804;20.476;2024-01-07T04:33:37;13.39;45.42
68867;SHT30;56451;44.804;20.476;2024-01-07T04:36:04;13.40;45.34
68867;SHT30;56451;44.804;20.476;2024-01-07T04:38:30;13.42;45.33
68867;SHT30;56451;44.804;20.476;2024-01-07T04:40:56;13.46;44.90
68867;SHT30;56451;44.804;20.476;2024-01-07T04:43:22;13.49;44.71
68867;SHT30;56451;44.804;20.476;2024-01-07T04:45:49;13.50;44.26
68867;SHT30;56451;44.804;20.476;2024-01-07T04:48:15;13.56;44.44
68867;SHT30;56451;44.804;20.476;2024-01-07T04:50:41;13.57;44.28
68867;SHT30;56451;44.804;20.476;2024-01-07T04:53:11;13.59;44.06
68867;SHT30;56451;44.804;20.476;2024-01-07T04:55:37;13.64;44.12
68867;SHT30;56451;44.804;20.476;2024-01-07T04:58:03;13.64;43.93
68867;SHT30;56451;44.804;20.476;2024-01-07T05:00:30;13.64;43.89
68867;SHT30;56451;44.804;20.476;2024-01-07T05:02:56;13.62;43.85
68867;SHT30;56451;44.804;20.476;2024-01-07T05:05:23;13.63;43.86
68867;SHT30;56451;44.804;20.476;2024-01-07T05:07:49;13.62;44.01
68867;SHT30;56451;44.804;20.476;2024-01-07T05:10:15;13.64;43.94
68867;SHT30;56451;44.804;20.476;2024-01-07T05:12:41;13.69;43.87
68867;SHT30;56451;44.804;20.476;2024-01-07T05:15:27;13.71;43.89
68867;SHT30;56451;44.804;20.476;2024-01-07T05:17:53;13.77;43.93
68867;SHT30;56451;44.804;20.476;2024-01-07T05:20:19;13.76;44.10
68867;SHT30;56451;44.804;20.476;2024-01-07T05:22:45;13.77;43.90
68867;SHT30;56451;44.804;20.476;2024-01-07T05:25:11;13.77;43.93
68867;SHT30;56451;44.804;20.476;2024-01-07T05:27:37;13.76;44.08
68867;SHT30;56451;44.804;20.476;2024-01-07T05:30:23;13.70;44.03
68867;SHT30;56451;44.804;20.476;2024-01-07T05:33:09;13.70;44.26
68867;SHT30;56451;44.804;20.476;2024-01-07T05:35:36;13.69;44.34
68867;SHT30;56451;44.804;20.476;2024-01-07T05:38:01;13.64;44.61
68867;SHT30;56451;44.804;20.476;2024-01-07T05:40:47;13.62;44.94
68867;SHT30;56451;44.804;20.476;2024-01-07T05:43:36;13.62;44.98
68867;SHT30;56451;44.804;20.476;2024-01-07T05:46:02;13.57;45.20
68867;SHT30;56451;44.804;20.476;2024-01-07T05:48:29;13.62;45.51
68867;SHT30;56451;44.804;20.476;2024-01-07T05:51:06;13.63;45.49
68867;SHT30;56451;44.804;20.476;2024-01-07T05:53:52;13.62;45.90
68867;SHT30;56451;44.804;20.476;2024-01-07T05:56:18;13.62;46.32
68867;SHT30;56451;44.804;20.476;2024-01-07T05:58:44;13.62;46.35
68867;SHT30;56451;44.804;20.476;2024-01-07T06:01:11;13.63;46.29
68867;SHT30;56451;44.804;20.476;2024-01-07T06:04:03;13.60;46.46
68867;SHT30;56451;44.804;20.476;2024-01-07T06:06:29;13.66;46.20
68867;SHT30;56451;44.804;20.476;2024-01-07T06:08:56;13.67;46.18
68867;SHT30;56451;44.804;20.476;2024-01-07T06:11:22;13.64;46.15
68867;SHT30;56451;44.804;20.476;2024-01-07T06:13:48;13.64;46.20
68867;SHT30;56451;44.804;20.476;2024-01-07T06:16:14;13.67;46.04
68867;SHT30;56451;44.804;20.476;2024-01-07T06:18:40;13.70;46.00
68867;SHT30;56451;44.804;20.476;2024-01-07T06:21:06;13.70;46.05
68867;SHT30;56451;44.804;20.476;2024-01-07T06:23:33;13.76;46.58
68867;SHT30;56451;44.804;20.476;2024-01-07T06:25:59;13.71;46.78
68867;SHT30;56451;44.804;20.476;2024-01-07T06:28:25;13.83;46.36
68867;SHT30;56451;44.804;20.476;2024-01-07T06:30:51;13.87;46.51
68867;SHT30;56451;44.804;20.476;2024-01-07T06:33:17;13.84;46.71
68867;SHT30;56451;44.804;20.476;2024-01-07T06:35:43;13.84;47.10
68867;SHT30;56451;44.804;20.476;2024-01-07T06:38:10;13.85;47.02
68867;SHT30;56451;44.804;20.476;2024-01-07T06:40:36;13.84;47.10
68867;SHT30;56451;44.804;20.476;2024-01-07T06:43:02;13.93;47.07
68867;SHT30;56451;44.804;20.476;2024-01-07T06:45:28;13.93;47.12
68867;SHT30;56451;44.804;20.476;2024-01-07T06:47:54;13.94;47.24
68867;SHT30;56451;44.804;20.476;2024-01-07T06:50:21;14.00;47.12
68867;SHT30;56451;44.804;20.476;2024-01-07T06:52:47;14.04;47.29
68867;SHT30;56451;44.804;20.476;2024-01-07T06:55:14;14.05;47.15
68867;SHT30;56451;44.804;20.476;2024-01-07T06:57:41;14.10;47.36
68867;SHT30;56451;44.804;20.476;2024-01-07T07:00:07;14.15;47.52
68867;SHT30;56451;44.804;20.476;2024-01-07T07:02:33;14.14;47.83
68867;SHT30;56451;44.804;20.476;2024-01-07T07:05:19;14.14;47.81
68867;SHT30;56451;44.804;20.476;2024-01-07T07:08:05;14.18;48.06
68867;SHT30;56451;44.804;20.476;2024-01-07T07:10:51;14.18;48.36
68867;SHT30;56451;44.804;20.476;2024-01-07T07:13:18;14.24;48.37
68867;SHT30;56451;44.804;20.476;2024-01-07T07:15:44;14.22;48.75
68867;SHT30;56451;44.804;20.476;2024-01-07T07:18:30;14.25;48.60
68867;SHT30;56451;44.804;20.476;2024-01-07T07:21:16;14.31;48.47
68867;SHT30;56451;44.804;20.476;2024-01-07T07:24:02;14.36;48.35
68867;SHT30;56451;44.804;20.476;2024-01-07T07:26:28;14.35;48.17
68867;SHT30;56451;44.804;20.476;2024-01-07T07:29:14;14.35;48.24
68867;SHT30;56451;44.804;20.476;2024-01-07T07:32:00;14.43;48.12
68867;SHT30;56451;44.804;20.476;2024-01-07T07:34:48;14.42;48.03
68867;SHT30;56451;44.804;20.476;2024-01-07T07:37:14;14.48;47.93
68867;SHT30;56451;44.804;20.476;2024-01-07T07:40:00;14.51;47.75
68867;SHT30;56451;44.804;20.476;2024-01-07T07:42:26;14.55;47.63
68867;SHT30;56451;44.804;20.476;2024-01-07T07:44:52;14.52;47.59
68867;SHT30;56451;44.804;20.476;2024-01-07T07:47:18;14.51;47.75
68867;SHT30;56451;44.804;20.476;2024-01-07T07:50:05;14.46;46.34
68867;SHT30;56451;44.804;20.476;2024-01-07T07:52:52;14.29;46.61
68867;SHT30;56451;44.804;20.476;2024-01-07T07:55:38;14.11;47.04
68867;SHT30;56451;44.804;20.476;2024-01-07T07:58:24;13.98;47.64
68867;SHT30;56451;44.804;20.476;2024-01-07T08:01:10;13.90;47.72
68867;SHT30;56451;44.804;20.476;2024-01-07T08:03:56;13.84;48.30
68867;SHT30;56451;44.804;20.476;2024-01-07T08:06:42;13.77;48.28
68867;SHT30;56451;44.804;20.476;2024-01-07T08:09:09;13.76;48.43
68867;SHT30;56451;44.804;20.476;2024-01-07T08:11:34;13.70;48.36
68867;SHT30;56451;44.804;20.476;2024-01-07T08:14:01;13.63;48.26
68867;SHT30;56451;44.804;20.476;2024-01-07T08:16:28;13.57;48.74
68867;SHT30;56451;44.804;20.476;2024-01-07T08:18:54;13.56;48.87
68867;SHT30;56451;44.804;20.476;2024-01-07T08:21:40;13.49;48.78
68867;SHT30;56451;44.804;20.476;2024-01-07T08:24:26;13.42;48.82
68867;SHT30;56451;44.804;20.476;2024-01-07T08:27:12;13.34;49.34
68867;SHT30;56451;44.804;20.476;2024-01-07T08:29:59;13.29;49.67
68867;SHT30;56451;44.804;20.476;2024-01-07T08:32:46;13.25;49.97
68867;SHT30;56451;44.804;20.476;2024-01-07T08:35:12;13.16;50.10
68867;SHT30;56451;44.804;20.476;2024-01-07T08:37:38;13.08;50.72
68867;SHT30;56451;44.804;20.476;2024-01-07T08:40:04;13.01;51.23
68867;SHT30;56451;44.804;20.476;2024-01-07T08:42:51;12.87;51.95
68867;SHT30;56451;44.804;20.476;2024-01-07T08:45:37;12.77;52.47
68867;SHT30;56451;44.804;20.476;2024-01-07T08:48:04;12.73;52.77
68867;SHT30;56451;44.804;20.476;2024-01-07T08:50:30;12.70;53.14
68867;SHT30;56451;44.804;20.476;2024-01-07T08:52:56;12.64;53.06
68867;SHT30;56451;44.804;20.476;2024-01-07T08:55:23;12.70;52.86
68867;SHT30;56451;44.804;20.476;2024-01-07T08:57:48;12.83;52.60
68867;SHT30;56451;44.804;20.476;2024-01-07T09:00:15;12.95;52.23
68867;SHT30;56451;44.804;20.476;2024-01-07T09:02:42;13.09;51.87
68867;SHT30;56451;44.804;20.476;2024-01-07T09:05:08;13.25;51.42
68867;SHT30;56451;44.804;20.476;2024-01-07T09:07:34;13.43;51.22
68867;SHT30;56451;44.804;20.476;2024-01-07T09:10:01;13.53;50.98
68867;SHT30;56451;44.804;20.476;2024-01-07T09:12:28;13.71;50.74
68867;SHT30;56451;44.804;20.476;2024-01-07T09:14:54;13.88;50.43
68867;SHT30;56451;44.804;20.476;2024-01-07T09:17:20;14.01;50.25
68867;SHT30;56451;44.804;20.476;2024-01-07T09:19:47;14.08;49.76
68867;SHT30;56451;44.804;20.476;2024-01-07T09:22:13;14.15;49.81
68867;SHT30;56451;44.804;20.476;2024-01-07T09:24:39;14.24;50.01
68867;SHT30;56451;44.804;20.476;2024-01-07T09:27:05;14.29;50.41
68867;SHT30;56451;44.804;20.476;2024-01-07T09:29:51;14.39;51.18
68867;SHT30;56451;44.804;20.476;2024-01-07T09:32:18;14.36;51.90
68867;SHT30;56451;44.804;20.476;2024-01-07T09:34:44;14.43;52.27
68867;SHT30;56451;44.804;20.476;2024-01-07T09:37:11;14.52;52.82
68867;SHT30;56451;44.804;20.476;2024-01-07T09:39:58;14.51;53.87
68867;SHT30;56451;44.804;20.476;2024-01-07T09:42:45;14.51;54.73
68867;SHT30;56451;44.804;20.476;2024-01-07T09:45:33;14.62;54.71
68867;SHT30;56451;44.804;20.476;2024-01-07T09:48:22;14.66;54.56
68867;SHT30;56451;44.804;20.476;2024-01-07T09:50:49;14.69;54.85
68867;SHT30;56451;44.804;20.476;2024-01-07T09:53:38;14.79;54.45
68867;SHT30;56451;44.804;20.476;2024-01-07T09:56:26;14.79;54.13
68867;SHT30;56451;44.804;20.476;2024-01-07T09:59:15;14.90;53.77
68867;SHT30;56451;44.804;20.476;2024-01-07T10:01:43;14.99;53.33
68867;SHT30;56451;44.804;20.476;2024-01-07T10:04:10;15.08;53.21
68867;SHT30;56451;44.804;20.476;2024-01-07T10:06:37;15.12;53.31
68867;SHT30;56451;44.804;20.476;2024-01-07T10:09:06;15.24;53.46
68867;SHT30;56451;44.804;20.476;2024-01-07T10:11:52;15.34;54.11
68867;SHT30;56451;44.804;20.476;2024-01-07T10:14:19;15.48;53.98
68867;SHT30;56451;44.804;20.476;2024-01-07T10:16:48;15.57;52.69
68867;SHT30;56451;44.804;20.476;2024-01-07T10:19:38;15.61;52.08
68867;SHT30;56451;44.804;20.476;2024-01-07T10:22:05;15.66;51.66
68867;SHT30;56451;44.804;20.476;2024-01-07T10:24:51;15.76;51.98
68867;SHT30;56451;44.804;20.476;2024-01-07T10:27:17;15.79;51.77
68867;SHT30;56451;44.804;20.476;2024-01-07T10:30:04;15.73;52.01
68867;SHT30;56451;44.804;20.476;2024-01-07T10:32:55;15.73;51.54
68867;SHT30;56451;44.804;20.476;2024-01-07T10:36:00;15.70;51.27
68867;SHT30;56451;44.804;20.476;2024-01-07T10:38:48;15.66;51.49
68867;SHT30;56451;44.804;20.476;2024-01-07T10:41:37;15.69;50.93
68867;SHT30;56451;44.804;20.476;2024-01-07T10:44:03;15.76;50.80
68867;SHT30;56451;44.804;20.476;2024-01-07T10:46:49;15.79;50.90
68867;SHT30;56451;44.804;20.476;2024-01-07T10:49:36;15.61;51.18
68867;SHT30;56451;44.804;20.476;2024-01-07T10:52:27;15.49;51.41
68867;SHT30;56451;44.804;20.476;2024-01-07T10:55:14;15.28;51.77
68867;SHT30;56451;44.804;20.476;2024-01-07T10:58:03;15.16;52.28
68867;SHT30;56451;44.804;20.476;2024-01-07T11:00:29;15.06;52.59
68867;SHT30;56451;44.804;20.476;2024-01-07T11:03:31;15.11;52.70
68867;SHT30;56451;44.804;20.476;2024-01-07T11:06:09;15.16;52.73
68867;SHT30;56451;44.804;20.476;2024-01-07T11:08:59;15.16;52.71
68867;SHT30;56451;44.804;20.476;2024-01-07T11:11:47;15.07;52.19
68867;SHT30;56451;44.804;20.476;2024-01-07T11:16:59;14.94;52.86
68867;SHT30;56451;44.804;20.476;2024-01-07T11:19:26;14.90;52.96
68867;SHT30;56451;44.804;20.476;2024-01-07T11:22:22;14.87;53.22
68867;SHT30;56451;44.804;20.476;2024-01-07T11:25:38;14.94;53.16
68867;SHT30;56451;44.804;20.476;2024-01-07T11:31:09;15.12;52.59
68867;SHT30;56451;44.804;20.476;2024-01-07T11:33:36;15.10;52.87
68867;SHT30;56451;44.804;20.476;2024-01-07T11:36:04;15.03;53.15
68867;SHT30;56451;44.804;20.476;2024-01-07T11:38:31;14.93;53.40
68867;SHT30;56451;44.804;20.476;2024-01-07T11:40:57;14.75;54.04
68867;SHT30;56451;44.804;20.476;2024-01-07T11:43:25;14.53;54.88
68867;SHT30;56451;44.804;20.476;2024-01-07T11:45:52;14.39;55.21
68867;SHT30;56451;44.804;20.476;2024-01-07T11:48:19;14.26;55.77
68867;SHT30;56451;44.804;20.476;2024-01-07T11:50:45;14.20;56.50
68867;SHT30;56451;44.804;20.476;2024-01-07T11:53:12;13.93;55.99
68867;SHT30;56451;44.804;20.476;2024-01-07T11:55:58;13.83;56.91
68867;SHT30;56451;44.804;20.476;2024-01-07T11:58:24;13.78;56.76
68867;SHT30;56451;44.804;20.476;2024-01-07T12:00:50;13.81;56.52
68867;SHT30;56451;44.804;20.476;2024-01-07T12:03:16;13.85;56.36
68867;SHT30;56451;44.804;20.476;2024-01-07T12:06:03;13.90;56.26
68867;SHT30;56451;44.804;20.476;2024-01-07T12:08:30;13.97;56.22
68867;SHT30;56451;44.804;20.476;2024-01-07T12:10:56;14.12;55.88
68867;SHT30;56451;44.804;20.476;2024-01-07T12:13:43;14.25;55.86
68867;SHT30;56451;44.804;20.476;2024-01-07T12:16:10;14.17;55.46
68867;SHT30;56451;44.804;20.476;2024-01-07T12:18:36;14.08;56.02
68867;SHT30;56451;44.804;20.476;2024-01-07T12:21:03;13.94;56.43
68867;SHT30;56451;44.804;20.476;2024-01-07T12:23:34;13.84;56.90
68867;SHT30;56451;44.804;20.476;2024-01-07T12:26:26;13.87;57.25
68867;SHT30;56451;44.804;20.476;2024-01-07T12:29:12;13.81;57.29
68867;SHT30;56451;44.804;20.476;2024-01-07T12:31:59;13.70;57.32
68867;SHT30;56451;44.804;20.476;2024-01-07T12:34:45;13.76;57.75
68867;SHT30;56451;44.804;20.476;2024-01-07T12:37:14;13.77;57.67
68867;SHT30;56451;44.804;20.476;2024-01-07T12:39:40;13.78;57.64
68867;SHT30;56451;44.804;20.476;2024-01-07T12:42:06;13.76;57.39
68867;SHT30;56451;44.804;20.476;2024-01-07T12:44:53;13.66;56.91
68867;SHT30;56451;44.804;20.476;2024-01-07T12:47:40;13.50;57.24
68867;SHT30;56451;44.804;20.476;2024-01-07T12:50:06;13.49;57.91
68867;SHT30;56451;44.804;20.476;2024-01-07T12:52:36;13.49;57.76
68867;SHT30;56451;44.804;20.476;2024-01-07T12:55:22;13.49;57.97
68867;SHT30;56451;44.804;20.476;2024-01-07T12:57:50;13.39;57.82
68867;SHT30;56451;44.804;20.476;2024-01-07T13:00:37;13.34;58.73
68867;SHT30;56451;44.804;20.476;2024-01-07T13:03:04;13.23;59.51
68867;SHT30;56451;44.804;20.476;2024-01-07T13:05:33;13.09;60.26
68867;SHT30;56451;44.804;20.476;2024-01-07T13:07:59;13.05;59.82
68867;SHT30;56451;44.804;20.476;2024-01-07T13:10:26;12.94;59.13
68867;SHT30;56451;44.804;20.476;2024-01-07T13:13:12;12.95;59.73
68867;SHT30;56451;44.804;20.476;2024-01-07T13:15:49;13.02;59.67
68867;SHT30;56451;44.804;20.476;2024-01-07T13:18:36;13.02;58.83
68867;SHT30;56451;44.804;20.476;2024-01-07T13:21:22;12.97;58.47
68867;SHT30;56451;44.804;20.476;2024-01-07T13:24:08;12.91;59.26
68867;SHT30;56451;44.804;20.476;2024-01-07T13:26:34;12.81;59.42
68867;SHT30;56451;44.804;20.476;2024-01-07T13:29:00;12.84;60.16
68867;SHT30;56451;44.804;20.476;2024-01-07T13:31:26;12.95;60.31
68867;SHT30;56451;44.804;20.476;2024-01-07T13:34:13;12.95;60.47
68867;SHT30;56451;44.804;20.476;2024-01-07T13:36:40;12.94;60.75
68867;SHT30;56451;44.804;20.476;2024-01-07T13:39:08;12.87;61.62
68867;SHT30;56451;44.804;20.476;2024-01-07T13:41:54;12.78;62.44
68867;SHT30;56451;44.804;20.476;2024-01-07T13:44:40;12.74;63.01
68867;SHT30;56451;44.804;20.476;2024-01-07T13:47:26;12.64;63.36
68867;SHT30;56451;44.804;20.476;2024-01-07T13:50:02;12.57;63.71
68867;SHT30;56451;44.804;20.476;2024-01-07T13:52:30;12.56;64.99
68867;SHT30;56451;44.804;20.476;2024-01-07T13:55:16;12.29;66.18
68867;SHT30;56451;44.804;20.476;2024-01-07T13:58:03;12.20;66.95
68867;SHT30;56451;44.804;20.476;2024-01-07T14:00:46;12.18;67.86
68867;SHT30;56451;44.804;20.476;2024-01-07T14:03:12;12.09;68.08
68867;SHT30;56451;44.804;20.476;2024-01-07T14:05:38;12.03;68.80
68867;SHT30;56451;44.804;20.476;2024-01-07T14:08:05;11.98;69.77
68867;SHT30;56451;44.804;20.476;2024-01-07T14:10:32;11.91;69.78
68867;SHT30;56451;44.804;20.476;2024-01-07T14:12:58;11.88;70.32
68867;SHT30;56451;44.804;20.476;2024-01-07T14:15:25;11.95;70.73
68867;SHT30;56451;44.804;20.476;2024-01-07T14:18:11;11.92;70.92
68867;SHT30;56451;44.804;20.476;2024-01-07T14:20:41;11.93;70.92
68867;SHT30;56451;44.804;20.476;2024-01-07T14:23:07;11.93;71.17
68867;SHT30;56451;44.804;20.476;2024-01-07T14:25:36;11.96;71.45
68867;SHT30;56451;44.804;20.476;2024-01-07T14:28:02;12.05;72.23
68867;SHT30;56451;44.804;20.476;2024-01-07T14:30:30;11.98;72.77
68867;SHT30;56451;44.804;20.476;2024-01-07T14:32:56;11.96;72.73
68867;SHT30;56451;44.804;20.476;2024-01-07T14:35:24;11.98;73.19
68867;SHT30;56451;44.804;20.476;2024-01-07T14:37:52;11.95;73.62
68867;SHT30;56451;44.804;20.476;2024-01-07T14:40:18;11.95;73.85
68867;SHT30;56451;44.804;20.476;2024-01-07T14:42:44;11.96;74.23
68867;SHT30;56451;44.804;20.476;2024-01-07T14:45:10;11.89;74.71
68867;SHT30;56451;44.804;20.476;2024-01-07T14:47:36;11.89;74.90
68867;SHT30;56451;44.804;20.476;2024-01-07T14:50:03;11.88;75.02
68867;SHT30;56451;44.804;20.476;2024-01-07T14:52:29;11.86;75.22
68867;SHT30;56451;44.804;20.476;2024-01-07T14:54:55;11.88;75.50
68867;SHT30;56451;44.804;20.476;2024-01-07T14:57:22;11.78;75.75
68867;SHT30;56451;44.804;20.476;2024-01-07T14:59:48;11.71;75.97
68867;SHT30;56451;44.804;20.476;2024-01-07T15:02:14;11.62;76.11
68867;SHT30;56451;44.804;20.476;2024-01-07T15:04:40;11.51;76.30
68867;SHT30;56451;44.804;20.476;2024-01-07T15:07:26;11.43;76.72
68867;SHT30;56451;44.804;20.476;2024-01-07T15:09:53;11.38;76.85
68867;SHT30;56451;44.804;20.476;2024-01-07T15:12:19;11.34;76.88
68867;SHT30;56451;44.804;20.476;2024-01-07T15:14:45;11.30;76.81
68867;SHT30;56451;44.804;20.476;2024-01-07T15:17:31;11.16;77.24
68867;SHT30;56451;44.804;20.476;2024-01-07T15:20:18;11.03;77.32
68867;SHT30;56451;44.804;20.476;2024-01-07T15:23:04;10.96;77.34
68867;SHT30;56451;44.804;20.476;2024-01-07T15:25:50;10.89;77.15
68867;SHT30;56451;44.804;20.476;2024-01-07T15:28:16;10.76;77.74
68867;SHT30;56451;44.804;20.476;2024-01-07T15:30:43;10.77;77.82
68867;SHT30;56451;44.804;20.476;2024-01-07T15:33:09;10.80;77.57
68867;SHT30;56451;44.804;20.476;2024-01-07T15:35:36;10.69;77.90
68867;SHT30;56451;44.804;20.476;2024-01-07T15:38:02;10.64;78.15
68867;SHT30;56451;44.804;20.476;2024-01-07T15:40:29;10.62;78.32
68867;SHT30;56451;44.804;20.476;2024-01-07T15:42:57;10.59;78.41
68867;SHT30;56451;44.804;20.476;2024-01-07T15:45:25;10.49;78.70
68867;SHT30;56451;44.804;20.476;2024-01-07T15:48:12;10.48;78.79
68867;SHT30;56451;44.804;20.476;2024-01-07T15:50:58;10.45;78.96
68867;SHT30;56451;44.804;20.476;2024-01-07T15:53:44;10.38;78.85
68867;SHT30;56451;44.804;20.476;2024-01-07T15:56:30;10.30;79.29
68867;SHT30;56451;44.804;20.476;2024-01-07T15:58:56;10.24;79.20
68867;SHT30;56451;44.804;20.476;2024-01-07T16:01:22;10.21;79.33